Time;durP1;ratioP1;P1;durP2;ratioP2;P2;SDS_P1;SDS_P2;PMS_P1;PMS_P2;Temp;Humidity;BMP_temperature;BMP_pressure;BME280_temperature;BME280_humidity;BME280_pressure;Samples;Min_cycle;Max_cycle;Signal;HPM_P1;HPM_P2
2023/06/19 15:21:28;;;;;;;3.87;3.57;;;34.30;44.50;;;;;;4955714;28;20223;-72
2023/06/19 15:23:56;;;;;;;4.10;3.80;;;34.20;44.60;;;;;;4973611;28;20208;-74
2023/06/19 15:26:26;;;;;;;4.53;3.83;;;34.20;44.80;;;;;;4973504;28;20204;-73
2023/06/19 15:28:54;;;;;;;3.43;3.13;;;34.20;44.80;;;;;;4973571;28;20239;-72
2023/06/19 15:31:22;;;;;;;4.30;3.90;;;34.10;45.10;;;;;;4974154;28;20804;-74
2023/06/19 15:33:49;;;;;;;4.07;3.77;;;34.00;44.40;;;;;;4973188;28;20232;-73
2023/06/19 15:36:16;;;;;;;3.77;3.47;;;33.90;44.60;;;;;;4974069;28;20204;-73
2023/06/19 15:38:45;;;;;;;3.93;3.60;;;33.80;44.90;;;;;;4974571;28;20215;-73
2023/06/19 15:41:14;;;;;;;4.30;3.90;;;33.90;45.00;;;;;;4974357;28;20566;-73
2023/06/19 15:43:44;;;;;;;4.00;3.70;;;33.90;45.10;;;;;;4974167;28;20215;-73
2023/06/19 15:46:13;;;;;;;3.60;3.30;;;34.00;45.50;;;;;;4974000;28;20239;-72
2023/06/19 15:48:40;;;;;;;4.00;3.57;;;34.00;45.00;;;;;;4973014;28;20668;-72
2023/06/19 15:51:07;;;;;;;3.73;3.43;;;34.00;44.90;;;;;;4973062;28;20235;-73
2023/06/19 15:53:34;;;;;;;3.60;3.30;;;34.10;44.70;;;;;;4973356;28;20715;-72
2023/06/19 15:56:03;;;;;;;4.20;3.90;;;34.10;44.70;;;;;;4974228;28;20204;-72
2023/06/19 15:58:31;;;;;;;5.27;3.80;;;34.20;44.80;;;;;;4973639;28;20235;-72
2023/06/19 16:00:58;;;;;;;3.87;3.57;;;34.20;44.70;;;;;;4973612;28;20200;-74
2023/06/19 16:03:27;;;;;;;4.47;3.30;;;34.20;44.90;;;;;;4973362;28;20232;-73
2023/06/19 16:05:54;;;;;;;3.30;3.10;;;34.20;45.10;;;;;;4973492;28;20227;-73
2023/06/19 16:08:23;;;;;;;3.87;3.57;;;34.30;45.20;;;;;;4973754;28;20231;-73
2023/06/19 16:10:50;;;;;;;3.60;3.30;;;34.20;44.80;;;;;;4973605;28;20212;-73
2023/06/19 16:13:18;;;;;;;3.73;3.43;;;34.20;45.20;;;;;;4973026;28;20711;-73
2023/06/19 16:15:45;;;;;;;3.87;3.50;;;34.20;45.20;;;;;;4973366;28;20223;-73
2023/06/19 16:18:12;;;;;;;4.37;4.07;;;34.20;45.00;;;;;;4973401;28;20301;-73
2023/06/19 16:20:42;;;;;;;4.20;3.90;;;34.10;45.20;;;;;;4961968;28;20237;-73
2023/06/19 16:23:09;;;;;;;4.03;3.63;;;34.10;45.50;;;;;;4954176;29;20196;-72
2023/06/19 16:25:36;;;;;;;3.83;3.53;;;34.10;45.70;;;;;;4955102;28;20235;-74
2023/06/19 16:28:09;;;;;;;4.00;3.63;;;34.10;45.60;;;;;;4968333;28;20655;-72
2023/06/19 16:30:37;;;;;;;4.90;4.50;;;34.20;45.70;;;;;;4965196;28;20235;-72
2023/06/19 16:33:04;;;;;;;4.07;3.63;;;34.20;45.70;;;;;;4958407;28;20360;-73
2023/06/19 16:35:31;;;;;;;4.00;3.70;;;34.20;45.70;;;;;;4972806;28;20700;-75
2023/06/19 16:37:58;;;;;;;3.97;3.63;;;34.30;45.80;;;;;;4968973;28;20568;-74
2023/06/19 16:40:25;;;;;;;4.17;3.87;;;34.30;45.30;;;;;;4973576;28;20220;-73
2023/06/19 16:42:58;;;;;;;4.43;4.03;;;34.30;45.40;;;;;;4973644;28;20216;-73
2023/06/19 16:45:27;;;;;;;4.33;3.97;;;34.30;45.60;;;;;;4970412;28;20259;-73
2023/06/19 16:47:59;;;;;;;4.37;3.97;;;34.20;45.70;;;;;;4966969;28;20252;-73
2023/06/19 16:50:26;;;;;;;4.20;3.83;;;34.20;46.00;;;;;;4954384;28;20197;-75
2023/06/19 16:52:53;;;;;;;4.23;3.80;;;34.20;45.70;;;;;;4953830;29;20255;-74
2023/06/19 16:55:24;;;;;;;4.40;4.00;;;34.10;45.70;;;;;;4953611;29;20675;-74
2023/06/19 16:57:51;;;;;;;4.23;3.93;;;34.00;45.70;;;;;;4956631;28;20245;-74
2023/06/19 17:00:18;;;;;;;4.20;3.90;;;34.00;45.80;;;;;;4968864;28;20617;-74
2023/06/19 17:02:46;;;;;;;5.47;3.93;;;33.90;46.10;;;;;;4959354;28;20223;-74
2023/06/19 17:05:15;;;;;;;4.70;4.30;;;33.90;46.20;;;;;;4953476;29;20236;-74
2023/06/19 17:07:45;;;;;;;4.20;3.90;;;33.80;46.10;;;;;;4956427;28;20250;-74
2023/06/19 17:10:16;;;;;;;4.10;3.70;;;33.70;46.20;;;;;;4972920;28;20239;-74
2023/06/19 17:12:43;;;;;;;4.40;4.10;;;33.70;46.20;;;;;;4972318;28;20192;-74
2023/06/19 17:15:11;;;;;;;3.93;3.63;;;33.70;46.30;;;;;;4955023;28;20227;-75
2023/06/19 17:17:37;;;;;;;3.87;3.57;;;33.60;46.60;;;;;;4954003;29;20222;-74
2023/06/19 17:20:06;;;;;;;4.20;3.90;;;33.60;46.60;;;;;;4953649;29;20247;-74
2023/06/19 17:22:34;;;;;;;4.07;3.77;;;33.50;46.80;;;;;;4953315;29;20232;-74
2023/06/19 17:25:01;;;;;;;5.90;4.00;;;33.50;46.90;;;;;;4955798;28;20230;-74
2023/06/19 17:27:28;;;;;;;4.47;4.17;;;33.40;47.00;;;;;;4959785;28;20205;-75
2023/06/19 17:29:55;;;;;;;4.10;3.80;;;33.40;47.10;;;;;;4973118;28;20211;-74
2023/06/19 17:32:22;;;;;;;4.30;4.00;;;33.40;47.20;;;;;;4971490;28;20242;-75
2023/06/19 17:34:48;;;;;;;4.70;4.30;;;33.30;47.40;;;;;;4972147;28;20207;-74
2023/06/19 17:37:15;;;;;;;4.03;3.63;;;33.40;47.60;;;;;;4972299;28;20223;-75
2023/06/19 17:39:43;;;;;;;4.47;4.13;;;33.30;47.50;;;;;;4972925;28;20205;-75
2023/06/19 17:42:11;;;;;;;3.53;3.33;;;33.30;47.90;;;;;;4973066;28;20306;-74
2023/06/19 17:44:38;;;;;;;4.90;3.87;;;33.30;47.90;;;;;;4971541;28;20218;-74
2023/06/19 17:47:05;;;;;;;4.07;3.77;;;33.20;47.50;;;;;;4972716;28;20222;-74
2023/06/19 17:49:32;;;;;;;3.80;3.50;;;33.20;47.30;;;;;;4955786;28;20234;-75
2023/06/19 17:51:59;;;;;;;4.07;3.77;;;33.20;48.10;;;;;;4972688;28;20666;-74
2023/06/19 17:54:25;;;;;;;4.30;3.90;;;33.20;47.40;;;;;;4972053;28;20238;-74
2023/06/19 17:56:54;;;;;;;4.77;3.80;;;33.20;47.70;;;;;;4973097;28;20217;-74
2023/06/19 17:59:21;;;;;;;4.60;4.20;;;33.10;47.80;;;;;;4958469;28;20297;-74
2023/06/19 18:01:49;;;;;;;4.50;4.10;;;33.10;47.90;;;;;;4956726;29;20211;-74
2023/06/19 18:04:16;;;;;;;4.20;3.90;;;33.10;48.60;;;;;;4956412;29;20771;-74
2023/06/19 18:06:43;;;;;;;4.30;4.00;;;33.00;47.90;;;;;;4971765;28;20238;-74
2023/06/19 18:09:10;;;;;;;4.53;4.13;;;33.00;47.90;;;;;;4975521;28;20220;-74
2023/06/19 18:11:36;;;;;;;4.50;4.10;;;33.00;47.90;;;;;;4975399;28;20240;-75
2023/06/19 18:14:04;;;;;;;4.07;3.77;;;33.00;48.60;;;;;;4960007;28;20218;-74
2023/06/19 18:16:31;;;;;;;4.23;3.93;;;32.90;48.10;;;;;;4970098;28;20585;-75
2023/06/19 18:18:58;;;;;;;4.80;4.07;;;32.90;48.10;;;;;;4975445;28;20205;-74
2023/06/19 18:21:25;;;;;;;4.30;3.90;;;32.80;48.20;;;;;;4976285;28;20200;-75
2023/06/19 18:23:52;;;;;;;5.07;4.23;;;32.70;48.30;;;;;;4971488;28;20219;-74
2023/06/19 18:26:19;;;;;;;4.37;4.00;;;32.70;48.50;;;;;;4969968;28;20677;-74
2023/06/19 18:28:46;;;;;;;4.00;3.70;;;32.70;48.60;;;;;;4975627;28;20240;-74
2023/06/19 18:31:17;;;;;;;4.73;4.33;;;32.60;48.70;;;;;;4975843;28;20303;-74
2023/06/19 18:33:44;;;;;;;5.03;4.00;;;32.60;48.90;;;;;;4975368;28;20705;-75
2023/06/19 18:36:11;;;;;;;4.50;4.13;;;32.50;49.00;;;;;;4967380;28;20281;-74
2023/06/19 18:38:44;;;;;;;4.87;4.03;;;32.50;49.20;;;;;;4968691;28;20226;-74
2023/06/19 18:41:10;;;;;;;4.23;3.83;;;32.40;49.20;;;;;;4961694;28;20675;-74
2023/06/19 18:43:37;;;;;;;4.47;4.07;;;32.30;49.20;;;;;;4956126;29;20213;-74
2023/06/19 18:46:06;;;;;;;5.33;4.23;;;32.30;49.60;;;;;;4963202;28;20217;-74
2023/06/19 18:48:34;;;;;;;4.03;3.73;;;32.20;49.70;;;;;;4970386;28;20209;-74
2023/06/19 18:51:01;;;;;;;4.40;4.00;;;32.20;50.00;;;;;;4967395;28;20308;-74
2023/06/19 18:53:29;;;;;;;4.17;3.87;;;32.10;50.10;;;;;;4975264;28;20311;-74
2023/06/19 18:55:56;;;;;;;4.90;4.40;;;32.10;50.30;;;;;;4959625;28;20233;-74
2023/06/19 18:58:22;;;;;;;4.70;4.23;;;32.00;50.50;;;;;;4955592;29;20706;-74
2023/06/19 19:00:49;;;;;;;4.53;4.13;;;32.00;50.70;;;;;;4971983;28;20239;-75
2023/06/19 19:03:17;;;;;;;4.27;3.97;;;31.90;50.90;;;;;;4975042;28;20228;-74
2023/06/19 19:05:47;;;;;;;4.50;4.20;;;31.90;50.90;;;;;;4974785;28;20700;-74
2023/06/19 19:08:19;;;;;;;4.63;4.23;;;31.80;50.90;;;;;;4974582;28;20251;-74
2023/06/19 19:10:46;;;;;;;4.67;4.27;;;31.70;50.90;;;;;;4973759;28;20295;-74
2023/06/19 19:13:14;;;;;;;4.37;3.97;;;31.70;51.00;;;;;;4974569;28;20664;-74
2023/06/19 19:15:44;;;;;;;4.97;4.13;;;31.70;51.00;;;;;;4974304;28;20270;-75
2023/06/19 19:18:10;;;;;;;4.47;4.10;;;31.60;51.20;;;;;;4975157;28;20233;-74
2023/06/19 19:20:37;;;;;;;7.60;4.27;;;31.60;51.20;;;;;;4973962;28;20327;-74
2023/06/19 19:23:08;;;;;;;4.43;4.03;;;31.50;51.20;;;;;;4972950;28;20243;-74
2023/06/19 19:25:35;;;;;;;4.87;4.47;;;31.50;51.60;;;;;;4942467;29;20606;-75
2023/06/19 19:28:02;;;;;;;4.60;4.20;;;31.40;51.80;;;;;;4937940;29;20215;-74
2023/06/19 19:30:30;;;;;;;4.63;4.20;;;31.30;52.10;;;;;;4967502;28;20222;-74
2023/06/19 19:32:57;;;;;;;4.70;4.10;;;31.20;52.50;;;;;;4974344;28;20243;-74
2023/06/19 19:35:24;;;;;;;5.10;4.60;;;31.20;52.70;;;;;;4974271;28;20215;-74
2023/06/19 19:37:56;;;;;;;5.17;4.07;;;31.10;52.90;;;;;;4973940;28;20256;-74
2023/06/19 19:40:25;;;;;;;4.50;4.10;;;31.00;53.20;;;;;;4963468;28;20233;-74
2023/06/19 19:42:54;;;;;;;4.23;3.93;;;30.90;53.20;;;;;;4968931;28;20258;-74
2023/06/19 19:45:21;;;;;;;7.20;4.33;;;30.80;53.30;;;;;;4968541;28;20543;-74
2023/06/19 19:47:48;;;;;;;4.83;4.37;;;30.80;53.70;;;;;;4967294;28;20296;-74
2023/06/19 19:50:18;;;;;;;4.13;3.80;;;30.70;54.10;;;;;;4954933;29;20661;-74
2023/06/19 19:52:45;;;;;;;6.13;4.47;;;30.60;54.40;;;;;;4954881;29;20190;-74
2023/06/19 19:55:13;;;;;;;4.70;4.30;;;30.60;54.60;;;;;;4954372;29;20223;-74
2023/06/19 19:57:42;;;;;;;4.67;4.10;;;30.50;54.80;;;;;;4960386;28;20224;-74
2023/06/19 20:00:10;;;;;;;4.80;4.37;;;30.40;55.00;;;;;;4974268;28;20212;-74
2023/06/19 20:02:37;;;;;;;5.37;4.87;;;30.40;55.20;;;;;;4973679;28;20242;-74
2023/06/19 20:05:08;;;;;;;5.10;4.60;;;30.30;55.50;;;;;;4973917;28;20299;-74
2023/06/19 20:07:35;;;;;;;8.33;5.10;;;30.30;56.20;;;;;;4954644;28;20231;-74
2023/06/19 20:10:01;;;;;;;5.00;4.60;;;30.20;56.40;;;;;;4973667;28;20308;-74
2023/06/19 20:12:31;;;;;;;4.80;4.40;;;30.10;56.50;;;;;;4958503;28;20223;-74
2023/06/19 20:15:01;;;;;;;5.77;4.70;;;30.10;56.80;;;;;;4954228;29;20249;-74
2023/06/19 20:17:34;;;;;;;5.50;5.10;;;30.00;56.90;;;;;;4956989;28;20199;-74
2023/06/19 20:20:03;;;;;;;5.33;4.83;;;29.90;57.30;;;;;;4972933;28;20236;-74
2023/06/19 20:22:33;;;;;;;6.17;4.60;;;29.90;57.10;;;;;;4972794;28;20244;-74
2023/06/19 20:25:00;;;;;;;5.33;4.83;;;29.80;57.30;;;;;;4969950;28;20692;-74
2023/06/19 20:27:27;;;;;;;5.53;5.03;;;29.80;57.20;;;;;;4970262;28;20231;-74
2023/06/19 20:29:57;;;;;;;8.23;5.03;;;29.70;57.30;;;;;;4955661;28;20239;-74
2023/06/19 20:32:25;;;;;;;5.33;4.70;;;29.70;57.50;;;;;;4954564;29;20240;-74
2023/06/19 20:34:52;;;;;;;5.77;4.93;;;29.60;57.30;;;;;;4959296;28;20204;-74
2023/06/19 20:37:19;;;;;;;6.50;5.40;;;29.60;57.60;;;;;;4973192;28;20208;-74
2023/06/19 20:39:49;;;;;;;5.30;4.80;;;29.50;57.60;;;;;;4957191;28;20678;-74
2023/06/19 20:42:17;;;;;;;5.60;4.80;;;29.50;58.10;;;;;;4970799;28;20291;-74
2023/06/19 20:44:44;;;;;;;5.07;4.67;;;29.40;58.10;;;;;;4971836;28;20321;-74
2023/06/19 20:47:11;;;;;;;6.27;4.93;;;29.40;58.40;;;;;;4960250;28;20589;-74
2023/06/19 20:49:42;;;;;;;5.60;4.60;;;29.30;58.50;;;;;;4954121;29;20597;-74
2023/06/19 20:52:11;;;;;;;5.97;5.20;;;29.20;58.70;;;;;;4964971;28;20757;-74
2023/06/19 20:54:39;;;;;;;5.17;4.60;;;29.20;58.80;;;;;;4953836;29;20224;-74
2023/06/19 20:57:09;;;;;;;5.60;4.63;;;29.10;59.00;;;;;;4967675;28;20283;-74
2023/06/19 20:59:36;;;;;;;5.83;5.33;;;29.10;59.40;;;;;;4954173;28;20250;-75
2023/06/19 21:02:09;;;;;;;5.73;5.20;;;29.00;59.40;;;;;;4954030;29;20217;-75
2023/06/19 21:04:36;;;;;;;6.23;4.93;;;29.00;59.80;;;;;;4953457;29;20200;-75
2023/06/19 21:07:04;;;;;;;5.27;4.83;;;29.00;59.80;;;;;;4953468;29;20590;-75
2023/06/19 21:09:31;;;;;;;6.83;5.20;;;28.90;59.80;;;;;;4954211;28;20246;-74
2023/06/19 21:11:58;;;;;;;5.70;5.20;;;28.90;59.80;;;;;;4960631;28;20552;-74
2023/06/19 21:14:25;;;;;;;7.43;5.20;;;28.80;59.70;;;;;;4959560;28;20238;-74
2023/06/19 21:16:57;;;;;;;5.17;4.60;;;28.80;59.70;;;;;;4972572;28;20668;-74
2023/06/19 21:19:24;;;;;;;5.27;4.87;;;28.70;60.00;;;;;;4962794;28;20243;-74
2023/06/19 21:21:57;;;;;;;5.73;5.33;;;28.70;60.00;;;;;;4972699;28;20227;-74
2023/06/19 21:24:25;;;;;;;5.80;5.30;;;28.70;60.10;;;;;;4972472;28;20216;-74
2023/06/19 21:26:55;;;;;;;5.30;4.90;;;28.60;59.90;;;;;;4972048;28;20234;-74
2023/06/19 21:29:22;;;;;;;7.30;4.90;;;28.60;60.10;;;;;;4972108;28;20214;-74
2023/06/19 21:31:49;;;;;;;5.17;4.77;;;28.60;60.20;;;;;;4976247;28;20202;-74
2023/06/19 21:34:23;;;;;;;5.67;5.17;;;28.50;60.30;;;;;;4969671;28;20211;-75
2023/06/19 21:36:49;;;;;;;5.30;4.90;;;28.50;60.70;;;;;;4971302;28;20306;-75
2023/06/19 21:39:18;;;;;;;6.17;5.60;;;28.40;60.70;;;;;;4959303;28;20208;-75
2023/06/19 21:41:46;;;;;;;7.13;5.17;;;28.40;61.20;;;;;;4961179;28;20646;-75
2023/06/19 21:44:13;;;;;;;6.47;5.87;;;28.40;61.10;;;;;;4975652;28;20204;-75
2023/06/19 21:46:42;;;;;;;6.03;5.53;;;28.40;61.20;;;;;;4976236;28;20230;-75
2023/06/19 21:49:10;;;;;;;5.47;4.97;;;28.40;61.50;;;;;;4976211;28;20205;-75
2023/06/19 21:51:38;;;;;;;5.73;5.17;;;28.40;61.40;;;;;;4968276;28;20223;-75
2023/06/19 21:54:05;;;;;;;5.47;4.90;;;28.30;61.50;;;;;;4957662;28;20207;-75
2023/06/19 21:56:32;;;;;;;6.10;5.57;;;28.40;61.80;;;;;;4967151;28;20238;-75
2023/06/19 21:59:02;;;;;;;6.80;5.50;;;28.30;61.70;;;;;;4963139;28;20228;-75
2023/06/19 22:01:29;;;;;;;6.47;5.87;;;28.30;61.50;;;;;;4972902;28;20676;-75
2023/06/19 22:03:59;;;;;;;5.37;4.97;;;28.30;61.50;;;;;;4972857;28;20220;-75
2023/06/19 22:06:25;;;;;;;5.80;5.03;;;28.30;61.60;;;;;;4966818;28;20234;-75
2023/06/19 22:08:59;;;;;;;4.97;4.63;;;28.30;61.40;;;;;;4975601;28;20231;-75
2023/06/19 22:11:26;;;;;;;5.60;5.10;;;28.30;61.70;;;;;;4958278;28;20577;-75
2023/06/19 22:13:55;;;;;;;5.70;5.30;;;28.30;61.60;;;;;;4956295;28;20215;-75
2023/06/19 22:16:24;;;;;;;5.67;5.20;;;28.30;61.30;;;;;;4956388;28;20220;-75
2023/06/19 22:18:51;;;;;;;5.60;5.10;;;28.30;61.10;;;;;;4962483;28;20206;-75
2023/06/19 22:21:18;;;;;;;5.50;5.10;;;28.30;60.90;;;;;;4972098;28;20203;-75
2023/06/19 22:23:47;;;;;;;5.57;5.17;;;28.30;61.20;;;;;;4957368;28;20227;-75
2023/06/19 22:26:13;;;;;;;5.90;5.40;;;28.30;61.40;;;;;;4975567;28;20236;-75
2023/06/19 22:28:40;;;;;;;5.63;5.10;;;28.30;61.50;;;;;;4958004;28;20213;-75
2023/06/19 22:31:07;;;;;;;5.70;5.20;;;28.30;61.90;;;;;;4957226;28;20287;-75
2023/06/19 22:33:37;;;;;;;5.70;5.30;;;28.30;62.10;;;;;;4957540;28;20207;-75
2023/06/19 22:36:04;;;;;;;5.30;4.90;;;28.30;62.30;;;;;;4971588;28;20236;-74
2023/06/19 22:38:31;;;;;;;5.83;5.33;;;28.30;62.20;;;;;;4973754;28;20291;-74
2023/06/19 22:41:03;;;;;;;6.80;5.70;;;28.30;62.20;;;;;;4964896;28;20298;-74
2023/06/19 22:43:30;;;;;;;5.47;5.07;;;28.30;62.10;;;;;;4974652;28;20192;-74
2023/06/19 22:45:57;;;;;;;5.53;5.03;;;28.30;62.30;;;;;;4960340;28;20223;-74
2023/06/19 22:48:26;;;;;;;5.30;4.90;;;28.30;62.40;;;;;;4955095;29;20232;-74
2023/06/19 22:50:54;;;;;;;6.20;5.10;;;28.20;62.40;;;;;;4956039;29;20212;-74
2023/06/19 22:53:21;;;;;;;5.60;5.10;;;28.20;62.50;;;;;;4955899;29;20239;-74
2023/06/19 22:55:51;;;;;;;5.23;4.83;;;28.20;62.50;;;;;;4955999;29;20223;-74
2023/06/19 22:58:18;;;;;;;5.70;4.90;;;28.20;62.80;;;;;;4971840;28;20235;-74
2023/06/19 23:00:44;;;;;;;5.67;5.17;;;28.20;62.60;;;;;;4974116;28;20211;-74
2023/06/19 23:03:16;;;;;;;5.87;5.27;;;28.20;62.70;;;;;;4956354;28;20255;-74
2023/06/19 23:05:43;;;;;;;5.73;5.23;;;28.10;62.70;;;;;;4966939;28;20540;-74
2023/06/19 23:08:19;;;;;;;5.97;5.33;;;28.10;62.80;;;;;;4958813;28;20230;-74
2023/06/19 23:10:50;;;;;;;5.87;5.27;;;28.10;63.40;;;;;;4973837;28;20229;-74
2023/06/19 23:13:16;;;;;;;5.93;5.33;;;28.10;63.10;;;;;;4972716;28;20198;-74
2023/06/19 23:15:43;;;;;;;5.57;5.17;;;28.10;64.10;;;;;;4962198;28;20209;-74
2023/06/19 23:18:16;;;;;;;5.80;5.30;;;28.00;63.20;;;;;;4961810;28;20841;-74
2023/06/19 23:20:43;;;;;;;6.00;5.40;;;28.00;63.10;;;;;;4962873;28;20245;-74
2023/06/19 23:23:11;;;;;;;5.83;5.33;;;28.00;63.20;;;;;;4969735;28;20215;-74
2023/06/19 23:25:38;;;;;;;6.07;5.57;;;28.00;63.00;;;;;;4955766;28;20231;-74
2023/06/19 23:28:06;;;;;;;5.90;5.33;;;28.10;62.80;;;;;;4967278;28;20255;-75
2023/06/19 23:30:33;;;;;;;5.73;5.30;;;28.10;62.70;;;;;;4967744;28;20235;-75
2023/06/19 23:33:00;;;;;;;5.83;5.43;;;28.10;62.70;;;;;;4959124;28;20200;-74
2023/06/19 23:35:27;;;;;;;5.90;5.40;;;28.10;62.90;;;;;;4956394;28;20726;-74
2023/06/19 23:37:56;;;;;;;6.47;5.97;;;28.10;63.10;;;;;;4959854;28;20203;-74
2023/06/19 23:40:24;;;;;;;6.50;5.90;;;28.00;63.60;;;;;;4961975;28;20211;-75
2023/06/19 23:42:57;;;;;;;6.53;6.03;;;28.00;64.30;;;;;;4960871;28;20235;-74
2023/06/19 23:45:26;;;;;;;6.00;5.50;;;28.00;64.50;;;;;;4955325;28;20191;-74
2023/06/19 23:47:53;;;;;;;6.50;5.90;;;28.00;64.90;;;;;;4973702;28;20233;-74
2023/06/19 23:50:19;;;;;;;6.50;5.83;;;28.00;65.00;;;;;;4973819;28;20229;-75
2023/06/19 23:52:46;;;;;;;6.73;5.97;;;28.00;65.10;;;;;;4973402;28;20687;-74
2023/06/19 23:55:13;;;;;;;6.40;5.80;;;28.00;66.30;;;;;;4973531;28;20230;-75
2023/06/19 23:57:44;;;;;;;6.60;6.00;;;28.00;66.00;;;;;;4971280;28;20228;-75
